Time;durP1;ratioP1;P1;durP2;ratioP2;P2;SDS_P1;SDS_P2;PMS_P1;PMS_P2;Temp;Humidity;BMP_temperature;BMP_pressure;BME280_temperature;BME280_humidity;BME280_pressure;Samples;Min_cycle;Max_cycle;Signal;HPM_P1;HPM_P2
2022/05/20 00:02:21;;;;;;;7.50;4.10;;;;;;;25.05;49.87;100392.44;4956953;28;20061;-81
2022/05/20 00:04:48;;;;;;;6.90;4.30;;;;;;;25.02;49.82;100387.44;4944568;28;20052;-83
2022/05/20 00:07:15;;;;;;;6.47;4.40;;;;;;;24.96;50.00;100391.84;4963984;28;20043;-81
2022/05/20 00:09:42;;;;;;;6.88;4.28;;;;;;;24.93;49.94;100389.56;4935605;28;20481;-81
2022/05/20 00:12:09;;;;;;;7.63;4.22;;;;;;;24.80;50.18;100397.78;4947588;28;20038;-81
2022/05/20 00:14:36;;;;;;;7.20;4.78;;;;;;;24.78;50.09;100395.28;4958641;28;20043;-81
2022/05/20 00:17:05;;;;;;;10.30;4.13;;;;;;;24.78;50.76;100387.13;4946338;28;20050;-82
2022/05/20 00:19:38;;;;;;;7.47;4.55;;;;;;;24.79;50.74;100396.94;4958218;28;20470;-89
2022/05/20 00:22:05;;;;;;;7.07;3.85;;;;;;;24.78;50.56;100392.56;4964383;28;20038;-90
2022/05/20 00:24:32;;;;;;;8.90;4.28;;;;;;;24.79;50.82;100386.06;4971293;28;20051;-79
2022/05/20 00:26:59;;;;;;;10.30;4.38;;;;;;;24.78;50.72;100389.00;4961983;28;20047;-91
2022/05/20 00:29:26;;;;;;;9.68;4.85;;;;;;;24.77;50.77;100390.06;4981580;28;20053;-89
2022/05/20 00:31:53;;;;;;;8.60;3.85;;;;;;;24.74;50.61;100390.50;4982562;28;20053;-82
2022/05/20 00:34:19;;;;;;;9.48;4.20;;;;;;;24.69;50.36;100378.38;4947898;28;20043;-79
2022/05/20 00:36:47;;;;;;;12.68;5.00;;;;;;;24.60;50.64;100376.13;4959293;28;20141;-80
2022/05/20 00:39:14;;;;;;;8.57;4.63;;;;;;;24.62;50.99;100382.16;4953348;28;20050;-79
2022/05/20 00:41:40;;;;;;;9.68;4.45;;;;;;;24.59;50.76;100380.72;4952422;28;20054;-82
2022/05/20 00:44:07;;;;;;;8.10;4.53;;;;;;;24.57;50.76;100385.53;4972075;28;20537;-82
2022/05/20 00:46:34;;;;;;;7.53;4.00;;;;;;;24.53;50.64;100386.19;4963540;28;20058;-79
2022/05/20 00:49:05;;;;;;;9.00;4.43;;;;;;;24.48;51.15;100382.22;4964661;28;20042;-82
2022/05/20 00:51:38;;;;;;;7.53;4.35;;;;;;;24.45;51.21;100385.38;4991058;28;20047;-82
2022/05/20 00:54:24;;;;;;;4.22;3.55;;;;;;;24.41;51.29;100375.94;4952995;28;20046;-91
2022/05/20 00:57:30;;;;;;;6.18;3.60;;;;;;;24.37;51.50;100382.84;4956174;28;20074;-91
2022/05/20 01:04:36;;;;;;;8.55;4.18;;;;;;;24.31;51.36;100380.16;4944839;28;20038;-92
2022/05/20 01:07:04;;;;;;;6.72;3.80;;;;;;;24.30;51.47;100373.03;4941752;28;20051;-92
2022/05/20 01:09:32;;;;;;;6.82;4.03;;;;;;;24.27;51.48;100377.88;4983913;28;20054;-91
2022/05/20 01:11:59;;;;;;;9.52;4.07;;;;;;;24.25;51.30;100371.81;4950541;28;20394;-82
2022/05/20 01:14:26;;;;;;;5.60;4.13;;;;;;;24.21;51.73;100373.28;4981494;28;20050;-83
2022/05/20 01:16:53;;;;;;;6.82;3.70;;;;;;;24.15;51.84;100368.72;4957917;28;20045;-82
2022/05/20 01:19:37;;;;;;;7.28;4.18;;;;;;;24.09;52.06;100366.81;4950334;28;20582;-82
2022/05/20 01:22:06;;;;;;;7.75;4.22;;;;;;;24.05;51.82;100363.72;4969545;28;20612;-82
2022/05/20 01:24:33;;;;;;;9.80;4.30;;;;;;;23.98;51.94;100365.59;4978200;28;20050;-82
2022/05/20 01:27:00;;;;;;;9.05;4.32;;;;;;;23.93;52.05;100365.38;4966546;28;20047;-82
2022/05/20 01:29:26;;;;;;;11.55;4.43;;;;;;;23.91;52.23;100377.50;4976796;28;20415;-83
2022/05/20 01:31:53;;;;;;;8.15;4.05;;;;;;;23.89;52.24;100371.44;4965433;28;20053;-82
2022/05/20 01:34:20;;;;;;;5.50;4.57;;;;;;;23.91;52.13;100383.75;4975991;28;20714;-82
2022/05/20 01:36:47;;;;;;;8.40;4.60;;;;;;;23.92;52.08;100373.75;4979912;28;20062;-83
2022/05/20 01:39:14;;;;;;;8.82;4.40;;;;;;;23.94;52.18;100371.66;4980493;28;20494;-82
2022/05/20 01:41:50;;;;;;;10.18;5.03;;;;;;;23.95;52.43;100362.47;4960946;28;20473;-82
2022/05/20 01:44:29;;;;;;;6.90;4.30;;;;;;;23.96;52.17;100364.97;4960124;28;20051;-82
2022/05/20 01:47:24;;;;;;;6.75;4.65;;;;;;;23.87;52.55;100365.41;4950553;28;20039;-82
2022/05/20 01:49:57;;;;;;;8.07;5.18;;;;;;;23.71;52.38;100366.63;4886280;28;20163;-82
2022/05/20 01:52:48;;;;;;;5.57;4.32;;;;;;;23.66;52.59;100367.28;4947441;28;20047;-91
2022/05/20 01:55:29;;;;;;;7.60;4.50;;;;;;;23.66;52.67;100374.53;4891889;29;20055;-83
2022/05/20 01:58:03;;;;;;;10.57;4.43;;;;;;;23.70;52.49;100375.81;4901646;29;20170;-83
2022/05/20 02:00:32;;;;;;;12.98;4.70;;;;;;;23.70;52.70;100379.34;4923623;28;20053;-83
2022/05/20 02:03:14;;;;;;;5.18;4.28;;;;;;;23.73;52.73;100378.13;4913509;28;20495;-82
2022/05/20 02:05:45;;;;;;;6.40;4.25;;;;;;;23.74;52.51;100382.53;4939926;28;20055;-83
2022/05/20 02:08:21;;;;;;;7.90;4.20;;;;;;;23.72;52.72;100381.88;4909410;28;20130;-82
2022/05/20 02:10:54;;;;;;;9.10;4.60;;;;;;;23.69;52.87;100376.88;4933760;28;20113;-82
2022/05/20 02:18:14;;;;;;;8.32;4.05;;;;;;;23.65;52.68;100381.03;4914851;28;20046;-79
2022/05/20 02:20:44;;;;;;;7.18;4.43;;;;;;;23.63;52.64;100383.94;4932126;28;20050;-79
2022/05/20 02:23:20;;;;;;;8.77;4.25;;;;;;;23.63;52.82;100386.63;4960406;28;20049;-82
2022/05/20 02:25:51;;;;;;;6.13;4.20;;;;;;;23.61;52.85;100386.03;4957368;28;20046;-82
2022/05/20 02:28:29;;;;;;;7.57;4.18;;;;;;;23.59;53.01;100378.09;4967050;28;20059;-82
2022/05/20 02:30:58;;;;;;;9.98;4.90;;;;;;;23.59;52.47;100380.81;4987995;28;20498;-83
2022/05/20 02:33:26;;;;;;;9.52;4.60;;;;;;;23.57;52.81;100382.06;4978726;28;20125;-83
2022/05/20 02:36:02;;;;;;;7.35;4.20;;;;;;;23.57;53.04;100373.94;4975061;28;20475;-79
2022/05/20 02:38:29;;;;;;;4.63;3.80;;;;;;;23.56;52.77;100367.69;4964234;28;20046;-79
2022/05/20 02:40:55;;;;;;;4.65;4.10;;;;;;;23.56;52.88;100374.94;4940677;28;20055;-91
2022/05/20 02:43:23;;;;;;;5.03;4.20;;;;;;;23.54;52.90;100372.47;4949346;28;20043;-91
2022/05/20 02:45:51;;;;;;;8.63;4.72;;;;;;;23.52;52.89;100384.56;4976282;28;20397;-91
2022/05/20 02:48:19;;;;;;;6.75;4.22;;;;;;;23.48;52.92;100383.28;4979436;28;20055;-89
2022/05/20 02:50:46;;;;;;;8.13;4.55;;;;;;;23.44;52.90;100384.75;4977049;28;20061;-90
2022/05/20 02:53:15;;;;;;;7.18;4.22;;;;;;;23.42;53.05;100370.59;4961083;28;20050;-83
2022/05/20 02:55:42;;;;;;;12.43;5.95;;;;;;;23.38;53.26;100370.13;4963351;28;20035;-83
2022/05/20 03:04:09;;;;;;;8.95;4.00;;;;;;;23.36;53.30;100367.66;4973841;28;20043;-82
2022/05/20 03:06:27;;;;;;;10.02;4.38;;;;;;;23.29;53.29;100371.41;4960579;28;20091;-82
2022/05/20 03:08:54;;;;;;;8.13;4.75;;;;;;;23.31;53.35;100374.75;4955369;28;20043;-82
2022/05/20 03:11:21;;;;;;;7.03;4.55;;;;;;;23.31;53.34;100372.03;4950367;28;20046;-82
2022/05/20 03:13:49;;;;;;;7.15;4.55;;;;;;;23.29;53.58;100372.22;4979842;28;20053;-82
2022/05/20 03:16:15;;;;;;;8.20;4.70;;;;;;;23.30;53.41;100367.63;4954386;28;20043;-82
2022/05/20 03:18:42;;;;;;;5.63;4.43;;;;;;;23.29;53.44;100369.50;4979061;28;20406;-81
2022/05/20 03:21:09;;;;;;;6.45;4.50;;;;;;;23.27;53.35;100377.00;4950463;28;20050;-82
2022/05/20 03:23:36;;;;;;;7.07;5.47;;;;;;;23.26;53.23;100378.06;4951708;28;20502;-82
2022/05/20 03:26:04;;;;;;;9.23;5.40;;;;;;;23.16;53.39;100367.63;4987649;28;20058;-81
2022/05/20 03:28:33;;;;;;;9.32;4.97;;;;;;;23.14;53.52;100366.97;4977981;28;20055;-82
2022/05/20 03:31:07;;;;;;;8.35;5.10;;;;;;;23.12;53.74;100368.22;4963830;28;20049;-82
2022/05/20 03:33:34;;;;;;;7.95;4.72;;;;;;;23.09;53.50;100366.75;4947350;28;20053;-78
2022/05/20 03:36:01;;;;;;;8.43;5.15;;;;;;;23.09;53.49;100365.94;4959887;28;20501;-78
2022/05/20 03:38:28;;;;;;;7.20;5.25;;;;;;;23.06;53.48;100371.78;4966867;28;20122;-78
2022/05/20 03:40:54;;;;;;;10.77;5.40;;;;;;;23.06;53.58;100366.34;4976971;28;20410;-78
2022/05/20 03:43:21;;;;;;;7.90;5.15;;;;;;;23.05;53.86;100372.78;4978180;28;20050;-77
2022/05/20 03:45:48;;;;;;;8.90;4.75;;;;;;;23.03;53.79;100378.44;4994021;28;20058;-78
2022/05/20 03:48:15;;;;;;;7.82;4.63;;;;;;;23.01;53.84;100374.25;4976915;28;20057;-79
2022/05/20 03:50:48;;;;;;;6.22;4.53;;;;;;;23.01;53.95;100369.66;4974826;28;20080;-77
2022/05/20 03:53:14;;;;;;;9.15;4.82;;;;;;;23.02;53.97;100359.66;4979251;28;20054;-77
2022/05/20 03:55:41;;;;;;;8.77;4.97;;;;;;;22.99;54.07;100366.31;4950278;28;20533;-77
2022/05/20 03:58:08;;;;;;;7.82;4.78;;;;;;;22.96;54.13;100359.41;4965544;28;20051;-78
2022/05/20 04:01:56;;;;;;;11.35;5.03;;;;;;;22.94;54.10;100363.34;4973927;28;20051;-77
2022/05/20 04:03:21;;;;;;;8.63;5.15;;;;;;;22.93;53.96;100367.94;4930915;28;20043;-78
2022/05/20 04:05:48;;;;;;;7.60;4.60;;;;;;;22.91;54.23;100369.19;4957168;28;20053;-77
2022/05/20 04:08:16;;;;;;;7.82;4.93;;;;;;;22.89;54.27;100363.97;4950757;28;20397;-77
2022/05/20 04:10:42;;;;;;;7.00;5.18;;;;;;;22.87;54.46;100357.94;4950038;28;20041;-77
2022/05/20 04:13:09;;;;;;;8.45;4.90;;;;;;;22.88;54.46;100353.34;4961882;28;20046;-78
2022/05/20 04:15:36;;;;;;;8.98;4.65;;;;;;;22.89;54.41;100352.31;4955936;28;20054;-77
2022/05/20 04:18:03;;;;;;;9.90;4.97;;;;;;;22.88;54.33;100350.66;4976710;28;20516;-77
2022/05/20 04:20:30;;;;;;;12.50;4.70;;;;;;;22.86;54.41;100350.00;4990403;28;20058;-79
2022/05/20 04:22:57;;;;;;;9.50;5.00;;;;;;;22.87;54.43;100348.94;4981370;28;20050;-77
2022/05/20 04:25:24;;;;;;;7.97;5.00;;;;;;;22.88;54.61;100350.66;4978223;28;20069;-78
2022/05/20 04:27:50;;;;;;;5.20;4.32;;;;;;;22.88;54.64;100342.53;4950568;28;20055;-78
2022/05/20 04:30:19;;;;;;;8.88;5.30;;;;;;;22.87;54.86;100344.41;4987279;28;20050;-83
2022/05/20 04:32:46;;;;;;;9.68;5.07;;;;;;;22.87;54.77;100349.81;4972839;28;20495;-83
2022/05/20 04:35:13;;;;;;;10.65;5.97;;;;;;;22.89;54.72;100355.00;4960543;28;20489;-82
2022/05/20 04:37:39;;;;;;;7.55;4.85;;;;;;;22.87;54.77;100349.81;4973224;28;20460;-83
2022/05/20 04:40:07;;;;;;;9.32;5.43;;;;;;;22.85;55.17;100356.47;4980816;28;20585;-83
2022/05/20 04:48:09;;;;;;;11.18;5.20;;;;;;;22.92;55.03;100352.75;4943398;28;20066;-81
2022/05/20 04:50:35;;;;;;;9.38;5.90;;;;;;;22.94;54.85;100349.81;4961406;28;20489;-81
2022/05/20 04:53:04;;;;;;;7.70;5.68;;;;;;;22.94;54.95;100366.91;4939879;28;20056;-81
2022/05/20 04:55:31;;;;;;;9.32;6.22;;;;;;;22.99;54.53;100363.59;4985016;28;20390;-80
2022/05/20 04:57:59;;;;;;;12.60;5.80;;;;;;;23.02;54.58;100362.38;4967988;28;20054;-81
2022/05/20 05:00:29;;;;;;;13.88;5.82;;;;;;;23.03;54.84;100359.47;4945843;28;20402;-81
2022/05/20 05:02:56;;;;;;;11.88;5.95;;;;;;;23.08;54.64;100365.09;4975560;28;20053;-81
2022/05/20 05:05:26;;;;;;;8.25;5.88;;;;;;;23.08;54.49;100358.84;4977098;28;20047;-81
2022/05/20 05:07:54;;;;;;;8.27;5.90;;;;;;;23.09;54.67;100349.69;4976849;28;20050;-81
2022/05/20 05:10:23;;;;;;;9.32;6.40;;;;;;;23.08;54.96;100356.16;4974258;28;20073;-81
2022/05/20 05:12:51;;;;;;;10.75;5.25;;;;;;;23.06;54.88;100361.75;4961362;28;20041;-82
2022/05/20 05:15:19;;;;;;;8.98;6.10;;;;;;;23.06;54.77;100353.63;4964531;28;20045;-83
2022/05/20 05:20:32;;;;;;;9.35;7.07;;;;;;;23.12;54.65;100360.09;4955872;28;20057;-82
2022/05/20 05:23:00;;;;;;;8.32;6.13;;;;;;;23.10;54.64;100360.31;4981544;28;20062;-82
2022/05/20 05:25:30;;;;;;;9.20;6.40;;;;;;;23.14;55.02;100358.84;4965371;28;20069;-83
2022/05/20 05:27:57;;;;;;;11.95;6.90;;;;;;;23.19;54.98;100350.94;4977905;28;20048;-83
2022/05/20 05:30:24;;;;;;;8.80;6.65;;;;;;;23.22;54.97;100346.16;4961844;28;20414;-83
2022/05/20 05:32:51;;;;;;;12.73;6.60;;;;;;;23.25;54.91;100352.00;4965199;28;20046;-83
2022/05/20 05:35:20;;;;;;;10.85;7.20;;;;;;;23.27;54.95;100354.50;4961125;28;20045;-83
2022/05/20 05:37:48;;;;;;;12.68;7.30;;;;;;;23.30;55.05;100343.25;4981354;28;20090;-83
2022/05/20 05:40:19;;;;;;;12.82;7.00;;;;;;;23.29;54.95;100347.84;4980902;28;20051;-82
2022/05/20 05:42:46;;;;;;;10.98;6.13;;;;;;;23.33;54.93;100359.94;4979677;28;20054;-83
2022/05/20 05:45:20;;;;;;;10.77;6.70;;;;;;;23.33;55.29;100359.94;4962251;28;20111;-82
2022/05/20 05:47:50;;;;;;;7.93;6.47;;;;;;;23.39;55.22;100359.09;4979774;28;20053;-81
2022/05/20 05:50:17;;;;;;;8.73;6.28;;;;;;;23.43;55.22;100345.97;4975783;28;20076;-81
2022/05/20 05:52:44;;;;;;;9.77;6.32;;;;;;;23.49;55.33;100350.56;4979190;28;20046;-81
2022/05/20 05:55:11;;;;;;;9.60;6.57;;;;;;;23.54;55.03;100348.06;4968779;28;20051;-82
2022/05/20 05:57:38;;;;;;;15.48;6.68;;;;;;;23.53;54.95;100356.41;4962477;28;20074;-82
2022/05/20 06:00:05;;;;;;;8.32;6.30;;;;;;;23.54;54.93;100348.06;4972162;28;20117;-82
2022/05/20 06:02:37;;;;;;;;;;;;;;;23.50;55.11;100354.09;4978641;28;20113;-83
2022/05/20 06:05:04;;;;;;;12.45;6.82;;;;;;;23.52;54.90;100354.75;4977369;28;19922;-82
2022/05/20 06:07:31;;;;;;;11.02;6.10;;;;;;;23.49;55.09;100349.75;4974265;28;20055;-82
2022/05/20 06:09:59;;;;;;;9.75;6.30;;;;;;;23.49;55.18;100353.28;4965612;28;20138;-81
2022/05/20 06:12:25;;;;;;;11.57;6.97;;;;;;;23.51;55.10;100347.63;4947961;28;20050;-81
2022/05/20 06:14:52;;;;;;;10.20;6.47;;;;;;;23.52;55.16;100346.63;4968073;28;20130;-82
2022/05/20 06:17:19;;;;;;;8.75;6.63;;;;;;;23.53;55.09;100345.56;4963983;28;20106;-82
2022/05/20 06:19:45;;;;;;;15.45;6.47;;;;;;;23.55;55.35;100346.19;4978441;28;20061;-81
2022/05/20 06:22:12;;;;;;;12.55;6.38;;;;;;;23.59;55.34;100355.59;4981129;28;20048;-81
2022/05/20 06:24:39;;;;;;;16.00;6.20;;;;;;;23.66;55.57;100348.28;4971219;28;20402;-81
2022/05/20 06:27:06;;;;;;;10.48;6.88;;;;;;;23.75;55.50;100355.19;4972283;28;20043;-81
2022/05/20 06:29:32;;;;;;;11.70;6.90;;;;;;;23.81;55.47;100348.06;4983874;28;20062;-81
2022/05/20 06:31:59;;;;;;;11.75;7.10;;;;;;;23.86;55.27;100345.56;4981775;28;20409;-81
2022/05/20 06:34:26;;;;;;;7.78;6.13;;;;;;;23.91;55.29;100342.22;4976543;28;20105;-81
2022/05/20 06:39:57;;;;;;;12.00;7.20;;;;;;;23.97;55.15;100344.13;4944809;28;20061;-81
2022/05/20 06:42:24;;;;;;;10.25;6.15;;;;;;;23.97;54.85;100342.25;4988292;28;20039;-81
2022/05/20 06:44:52;;;;;;;9.98;6.55;;;;;;;24.00;55.16;100338.25;4975846;28;20057;-78
2022/05/20 06:47:19;;;;;;;10.55;6.28;;;;;;;24.02;55.25;100342.44;4967123;28;20057;-78
2022/05/20 06:49:46;;;;;;;10.63;6.43;;;;;;;23.98;55.52;100352.03;4960063;28;20481;-78
2022/05/20 06:53:03;;;;;;;10.82;6.72;;;;;;;23.98;55.88;100337.63;4953160;28;20055;-78
2022/05/20 06:55:30;;;;;;;11.80;6.32;;;;;;;24.08;55.85;100345.34;4898605;28;20047;-78
2022/05/20 06:57:57;;;;;;;12.38;6.82;;;;;;;24.13;56.14;100345.53;4946228;28;20055;-78
2022/05/20 07:00:24;;;;;;;9.38;6.80;;;;;;;24.18;55.71;100343.84;4960364;28;20048;-78
2022/05/20 07:02:50;;;;;;;10.68;6.47;;;;;;;24.22;55.91;100336.09;4960544;28;20065;-78
2022/05/20 07:05:17;;;;;;;9.38;6.57;;;;;;;24.30;55.77;100341.34;4963367;28;20495;-78
2022/05/20 07:07:44;;;;;;;9.77;6.95;;;;;;;24.36;55.43;100343.19;4940058;28;20471;-78
2022/05/20 07:10:12;;;;;;;9.35;6.10;;;;;;;24.40;55.51;100341.72;4946049;28;20414;-82
2022/05/20 07:12:39;;;;;;;10.27;7.10;;;;;;;24.41;56.16;100342.53;4981930;28;20051;-82
2022/05/20 07:15:07;;;;;;;11.93;7.03;;;;;;;24.50;55.94;100337.72;4978217;28;20042;-82
2022/05/20 07:17:35;;;;;;;13.60;7.38;;;;;;;24.53;55.78;100338.16;4975593;28;20042;-81
2022/05/20 07:20:04;;;;;;;9.52;7.03;;;;;;;24.52;56.15;100344.59;4944483;28;20050;-82
2022/05/20 07:22:30;;;;;;;11.57;6.40;;;;;;;24.54;56.22;100333.53;4983853;28;20054;-82
2022/05/20 07:24:57;;;;;;;11.52;7.22;;;;;;;24.58;56.31;100332.91;4950507;28;20081;-82
2022/05/20 07:27:24;;;;;;;13.77;7.40;;;;;;;24.65;55.96;100320.13;4942227;28;20095;-82
2022/05/20 07:29:50;;;;;;;12.93;7.00;;;;;;;24.67;55.57;100319.91;4955420;28;20046;-82
2022/05/20 07:32:17;;;;;;;9.60;6.57;;;;;;;24.64;55.84;100325.78;4950645;28;20061;-78
2022/05/20 07:34:44;;;;;;;11.85;7.35;;;;;;;24.67;56.22;100320.72;4967105;28;20134;-78
2022/05/20 07:37:14;;;;;;;12.93;8.85;;;;;;;24.69;55.78;100318.63;4950244;28;20051;-79
2022/05/20 07:39:40;;;;;;;12.05;7.15;;;;;;;24.64;56.05;100313.03;4956847;28;20053;-84
2022/05/20 07:42:09;;;;;;;13.93;6.88;;;;;;;24.71;56.16;100318.44;4962861;28;20054;-83
2022/05/20 07:44:36;;;;;;;12.32;7.80;;;;;;;24.79;55.89;100310.03;4981775;28;20077;-84
2022/05/20 07:47:03;;;;;;;12.45;7.03;;;;;;;24.80;56.40;100314.38;4966804;28;20049;-84
2022/05/20 07:49:30;;;;;;;11.45;7.10;;;;;;;24.80;56.47;100302.69;4952398;28;20104;-84
2022/05/20 07:51:57;;;;;;;9.50;7.43;;;;;;;24.85;55.79;100319.19;4977583;28;20440;-84
2022/05/20 07:54:26;;;;;;;14.15;7.60;;;;;;;24.85;56.70;100322.72;4963927;28;20043;-83
2022/05/20 07:57:00;;;;;;;12.23;8.30;;;;;;;24.86;55.90;100313.53;4976777;28;20046;-84
2022/05/20 07:59:30;;;;;;;14.70;8.18;;;;;;;24.91;55.85;100310.19;4958031;28;20439;-83
2022/05/20 08:01:58;;;;;;;12.82;7.97;;;;;;;24.91;55.93;100311.00;4965687;28;20046;-84
2022/05/20 08:07:18;;;;;;;13.32;8.10;;;;;;;24.97;56.14;100305.75;4972889;28;20486;-84
2022/05/20 08:09:45;;;;;;;11.73;7.85;;;;;;;24.99;55.57;100303.66;4975202;28;20038;-83
2022/05/20 08:12:12;;;;;;;10.48;7.57;;;;;;;24.99;56.09;100300.94;4974323;28;20046;-81
2022/05/20 08:14:46;;;;;;;14.80;8.00;;;;;;;24.94;56.52;100289.88;4985490;28;20050;-81
2022/05/20 08:17:13;;;;;;;11.95;8.07;;;;;;;24.95;56.27;100283.41;4955500;28;20521;-81
2022/05/20 08:19:40;;;;;;;10.77;7.15;;;;;;;24.97;56.85;100287.56;4964528;28;20409;-81
2022/05/20 08:22:07;;;;;;;11.65;7.53;;;;;;;24.99;56.76;100280.03;4973783;28;20043;-81
2022/05/20 08:24:34;;;;;;;10.38;7.45;;;;;;;24.98;56.57;100277.50;4979435;28;20047;-81
2022/05/20 08:27:01;;;;;;;11.73;7.30;;;;;;;25.00;56.96;100276.25;4966420;28;20047;-81
2022/05/20 08:29:27;;;;;;;12.13;7.38;;;;;;;25.02;57.00;100268.72;4974560;28;20490;-79
2022/05/20 08:31:54;;;;;;;14.50;7.63;;;;;;;25.08;56.89;100275.13;4983437;28;20065;-80
2022/05/20 08:34:21;;;;;;;10.90;7.28;;;;;;;25.07;56.69;100262.63;4967157;28;20058;-79
2022/05/20 08:36:48;;;;;;;9.82;7.25;;;;;;;25.07;56.43;100262.63;4961460;28;20050;-78
2022/05/20 08:39:14;;;;;;;11.65;7.50;;;;;;;25.14;56.86;100260.69;4949412;28;20402;-79
2022/05/20 08:41:53;;;;;;;10.43;8.10;;;;;;;25.11;56.84;100259.25;4979344;28;20434;-78
2022/05/20 08:44:21;;;;;;;10.68;7.47;;;;;;;25.23;56.53;100256.66;4921212;28;20482;-79
2022/05/20 08:46:48;;;;;;;12.52;8.85;;;;;;;25.32;56.50;100252.63;4979306;28;20401;-78
2022/05/20 08:49:18;;;;;;;12.27;8.35;;;;;;;25.29;56.49;100253.06;4979111;28;21590;-78
2022/05/20 08:51:52;;;;;;;11.65;7.97;;;;;;;25.31;56.94;100250.94;4998565;28;20046;-78
2022/05/20 08:54:19;;;;;;;9.45;7.43;;;;;;;25.40;57.01;100253.41;4940883;28;20133;-79
2022/05/20 08:56:46;;;;;;;11.30;7.60;;;;;;;25.39;57.24;100246.28;4982208;28;20047;-79
2022/05/20 08:59:19;;;;;;;14.25;9.32;;;;;;;25.39;56.12;100243.56;4974201;28;20046;-78
2022/05/20 09:01:50;;;;;;;17.27;7.90;;;;;;;25.44;56.46;100238.28;4947038;28;20129;-78
2022/05/20 09:04:22;;;;;;;10.27;7.90;;;;;;;25.45;56.55;100248.13;4941504;28;20083;-81
2022/05/20 09:07:22;;;;;;;15.20;8.93;;;;;;;25.46;57.27;100241.63;4969451;28;20045;-79
2022/05/20 09:09:55;;;;;;;10.32;7.55;;;;;;;25.54;56.38;100241.31;4885186;28;20068;-83
2022/05/20 09:12:41;;;;;;;13.35;8.65;;;;;;;25.46;56.09;100233.47;4956266;28;20130;-83
2022/05/20 09:18:08;;;;;;;11.43;8.45;;;;;;;25.61;56.00;100224.94;4924123;28;20050;-79
2022/05/20 09:20:49;;;;;;;11.70;8.35;;;;;;;25.59;56.15;100227.06;4971274;28;20050;-79
2022/05/20 09:23:20;;;;;;;13.38;8.38;;;;;;;25.74;55.70;100220.19;4959855;28;20046;-79
2022/05/20 09:26:10;;;;;;;12.50;9.18;;;;;;;25.75;55.35;100215.59;4973006;28;20449;-79
2022/05/20 09:28:44;;;;;;;14.00;8.90;;;;;;;25.78;55.50;100215.97;4964408;28;20046;-79
2022/05/20 09:31:21;;;;;;;14.50;8.63;;;;;;;25.76;56.02;100201.75;4947598;28;20110;-82
2022/05/20 09:33:50;;;;;;;13.30;8.95;;;;;;;25.82;56.55;100197.28;4990580;28;20532;-79
2022/05/20 09:36:43;;;;;;;12.95;7.90;;;;;;;25.77;56.59;100194.44;4957579;28;20051;-79
2022/05/20 09:39:16;;;;;;;14.80;8.02;;;;;;;25.89;56.69;100186.38;4955293;28;20629;-81
2022/05/20 09:41:52;;;;;;;13.50;8.43;;;;;;;25.90;56.13;100194.31;4978173;28;20061;-81
2022/05/20 09:44:23;;;;;;;16.52;8.85;;;;;;;26.04;56.32;100186.81;4982129;28;20046;-81
2022/05/20 09:46:56;;;;;;;12.18;8.18;;;;;;;26.04;56.78;100181.38;4966892;28;20410;-81
2022/05/20 09:49:32;;;;;;;9.00;7.80;;;;;;;26.07;56.70;100189.06;4989010;28;21954;-81
2022/05/20 09:52:00;;;;;;;12.48;8.80;;;;;;;26.10;56.19;100185.88;4989182;28;20049;-81
2022/05/20 09:54:36;;;;;;;8.32;6.93;;;;;;;26.16;55.28;100176.00;4979239;28;20051;-81
2022/05/20 09:57:19;;;;;;;10.38;7.13;;;;;;;26.24;54.91;100183.84;4983812;28;20046;-81
2022/05/20 09:59:48;;;;;;;10.20;7.07;;;;;;;26.36;54.16;100173.00;4976699;28;20814;-80
2022/05/20 10:02:30;;;;;;;10.10;6.22;;;;;;;26.34;50.82;100167.78;4992170;28;20062;-79
2022/05/20 10:05:19;;;;;;;10.10;5.88;;;;;;;26.32;48.50;100164.44;4977720;28;20042;-79
2022/05/20 10:08:30;;;;;;;9.10;5.95;;;;;;;26.37;49.38;100147.44;4972093;28;20080;-81
2022/05/20 10:11:07;;;;;;;11.70;6.35;;;;;;;26.36;48.57;100152.03;4875267;29;20055;-80
2022/05/20 10:14:04;;;;;;;11.10;5.63;;;;;;;26.41;49.08;100146.72;4915125;29;20142;-79
2022/05/20 10:16:41;;;;;;;10.65;6.03;;;;;;;26.55;48.31;100144.66;4887018;28;20497;-79
2022/05/20 10:19:40;;;;;;;9.25;5.82;;;;;;;26.56;47.48;100130.00;4931014;28;20545;-78
2022/05/20 10:22:28;;;;;;;9.10;6.25;;;;;;;26.65;46.70;100129.66;4914022;28;20039;-78
2022/05/20 10:25:26;;;;;;;10.23;5.38;;;;;;;26.65;46.06;100122.31;4959792;28;20490;-78
2022/05/20 10:34:10;;;;;;;8.15;4.85;;;;;;;26.78;46.74;100122.06;4883611;28;20046;-82
2022/05/20 10:36:53;;;;;;;8.95;5.15;;;;;;;26.79;43.73;100117.44;4979715;28;20066;-80
2022/05/20 10:39:38;;;;;;;12.88;5.60;;;;;;;26.83;43.92;100121.38;4918262;28;20081;-81
2022/05/20 10:42:25;;;;;;;8.63;5.57;;;;;;;26.82;43.47;100111.56;4974433;28;20035;-80
2022/05/20 10:51:19;;;;;;;8.75;4.78;;;;;;;26.98;42.11;100108.09;4923531;28;20066;-82
2022/05/20 10:54:06;;;;;;;9.75;5.22;;;;;;;27.03;41.73;100108.22;4956568;28;20038;-84
2022/05/20 10:57:01;;;;;;;6.43;4.60;;;;;;;27.10;42.46;100108.13;4956634;28;20390;-84
2022/05/20 11:00:05;;;;;;;9.57;4.50;;;;;;;27.08;42.77;100093.06;4953519;28;20100;-84
2022/05/20 11:03:06;;;;;;;8.60;4.80;;;;;;;27.20;42.65;100074.84;4936482;28;20165;-85
2022/05/20 11:06:01;;;;;;;9.68;5.20;;;;;;;27.15;43.04;100077.44;4901290;28;20050;-83
2022/05/20 11:08:28;;;;;;;9.57;5.05;;;;;;;27.21;43.90;100062.84;4974315;28;20073;-83
2022/05/20 11:11:24;;;;;;;12.25;5.18;;;;;;;27.22;42.00;100054.44;4972229;28;20429;-83
2022/05/20 11:14:06;;;;;;;9.18;4.82;;;;;;;27.26;43.33;100049.31;4937676;28;20046;-85
2022/05/20 11:16:40;;;;;;;7.75;5.32;;;;;;;27.31;43.72;100038.53;4970192;28;20042;-84
2022/05/20 11:19:46;;;;;;;8.25;5.00;;;;;;;27.32;41.07;100033.91;4975742;28;20105;-83
2022/05/20 11:22:34;;;;;;;9.82;4.90;;;;;;;27.29;41.53;100037.94;4944079;28;20042;-83
2022/05/20 11:25:53;;;;;;;8.35;4.85;;;;;;;27.39;41.46;100029.97;4963334;28;20046;-84
2022/05/20 11:28:57;;;;;;;6.60;4.78;;;;;;;27.45;40.56;100022.72;4906850;28;20053;-84
2022/05/20 11:31:39;;;;;;;8.00;4.35;;;;;;;27.42;41.14;100006.84;4937338;28;20046;-84
2022/05/20 11:34:38;;;;;;;12.02;4.90;;;;;;;27.45;41.19;99992.72;4940722;28;20388;-84
2022/05/20 11:37:20;;;;;;;8.27;4.57;;;;;;;27.61;41.67;99977.50;4959798;28;20047;-83
2022/05/20 11:40:09;;;;;;;10.80;4.93;;;;;;;27.59;42.14;99949.63;4978328;28;20418;-84
2022/05/20 11:42:54;;;;;;;10.65;5.03;;;;;;;27.61;40.81;99944.75;4956874;28;20042;-84
2022/05/20 11:45:45;;;;;;;11.20;4.70;;;;;;;27.63;41.49;99935.25;4963832;28;20046;-83
2022/05/20 11:48:32;;;;;;;8.02;5.28;;;;;;;27.67;42.02;99941.84;4972431;28;20047;-84
2022/05/20 11:51:28;;;;;;;6.65;5.15;;;;;;;27.70;41.37;99946.81;4960191;28;20137;-84
2022/05/20 11:54:22;;;;;;;12.85;5.15;;;;;;;27.78;41.28;99928.38;4958791;28;20046;-83
2022/05/20 11:56:57;;;;;;;8.20;5.07;;;;;;;27.77;41.27;99919.38;4990183;28;20046;-84
2022/05/20 11:59:42;;;;;;;13.23;5.25;;;;;;;27.76;41.03;99915.00;4980945;28;20063;-83
2022/05/20 12:02:14;;;;;;;10.48;5.93;;;;;;;27.84;41.51;99898.25;4975145;28;20050;-84
2022/05/20 12:04:41;;;;;;;10.73;5.32;;;;;;;27.86;41.35;99896.09;4964964;28;20077;-84
2022/05/20 12:07:12;;;;;;;12.20;5.47;;;;;;;27.84;41.66;99887.34;4963106;28;20047;-84
2022/05/20 12:09:48;;;;;;;13.77;5.18;;;;;;;27.85;41.26;99878.06;4988451;28;20159;-84
2022/05/20 12:12:29;;;;;;;11.35;5.43;;;;;;;27.93;41.59;99874.09;4971014;28;20051;-84
2022/05/20 12:15:27;;;;;;;10.55;5.00;;;;;;;27.88;41.49;99874.81;4965112;28;20593;-83
2022/05/20 12:17:54;;;;;;;8.15;5.90;;;;;;;27.92;41.97;99878.72;4976803;28;20059;-83
2022/05/20 12:26:48;;;;;;;12.38;5.70;;;;;;;27.95;42.47;99847.38;4900127;28;20469;-83
2022/05/20 12:29:34;;;;;;;8.55;5.30;;;;;;;27.94;42.18;99851.19;4943757;28;20082;-89
2022/05/20 12:32:16;;;;;;;9.40;5.28;;;;;;;28.02;41.78;99839.03;4955204;28;20046;-83
2022/05/20 12:34:53;;;;;;;9.32;5.60;;;;;;;28.05;42.83;99838.53;4990036;28;20486;-84
2022/05/20 12:37:42;;;;;;;15.07;6.05;;;;;;;28.13;42.66;99830.72;4934510;28;20042;-84
2022/05/20 12:40:19;;;;;;;8.02;5.55;;;;;;;28.23;42.36;99823.75;4976789;28;20058;-84